Time;durP1;ratioP1;P1;durP2;ratioP2;P2;SDS_P1;SDS_P2;PMS_P1;PMS_P2;Temp;Humidity;BMP_temperature;BMP_pressure;BME280_temperature;BME280_humidity;BME280_pressure;Samples;Min_cycle;Max_cycle;Signal;HPM_P1;HPM_P2
2021/06/02 00:00:06;;;;;;;5.07;3.55;;;;;;;;;;5059598;28;20219;-70
2021/06/02 00:02:31;;;;;;;4.32;3.92;;;;;;;;;;5062193;28;20197;-69
2021/06/02 00:05:00;;;;;;;4.97;3.63;;;;;;;;;;5058688;28;20196;-71
2021/06/02 00:07:25;;;;;;;4.03;3.60;;;;;;;;;;5060725;28;20693;-71
2021/06/02 00:09:51;;;;;;;4.57;3.50;;;;;;;;;;5061798;28;20227;-71
2021/06/02 00:12:17;;;;;;;4.72;4.10;;;;;;;;;;5062474;28;20214;-70
2021/06/02 00:14:42;;;;;;;6.85;3.92;;;;;;;;;;5063893;28;20202;-70
2021/06/02 00:17:10;;;;;;;7.88;3.85;;;;;;;;;;5060703;28;20196;-70
2021/06/02 00:19:35;;;;;;;6.03;4.15;;;;;;;;;;5063903;28;20181;-71
2021/06/02 00:22:02;;;;;;;6.90;4.18;;;;;;;;;;5069506;28;20524;-70
2021/06/02 00:24:27;;;;;;;6.05;4.50;;;;;;;;;;5063760;28;20194;-71
2021/06/02 00:26:54;;;;;;;6.72;3.75;;;;;;;;;;5063817;28;20174;-71
2021/06/02 00:29:20;;;;;;;6.25;4.38;;;;;;;;;;5063515;28;20173;-70
2021/06/02 00:31:46;;;;;;;4.25;3.78;;;;;;;;;;5062251;28;20708;-70
2021/06/02 00:34:12;;;;;;;7.47;4.28;;;;;;;;;;5065487;28;20254;-71
2021/06/02 00:36:40;;;;;;;8.10;4.47;;;;;;;;;;5065152;28;20177;-70
2021/06/02 00:39:06;;;;;;;6.13;3.92;;;;;;;;;;5065447;28;20210;-70
2021/06/02 00:41:33;;;;;;;12.07;5.47;;;;;;;;;;5067115;28;20185;-71
2021/06/02 00:43:59;;;;;;;5.45;4.20;;;;;;;;;;5059560;28;20197;-70
2021/06/02 00:46:26;;;;;;;5.10;4.60;;;;;;;;;;5055037;28;20192;-70
2021/06/02 00:48:51;;;;;;;5.88;4.20;;;;;;;;;;5058126;28;20173;-71
2021/06/02 00:51:18;;;;;;;9.88;4.65;;;;;;;;;;5059293;28;20212;-70
2021/06/02 00:53:43;;;;;;;5.97;4.72;;;;;;;;;;5061855;28;20265;-71
2021/06/02 00:56:08;;;;;;;6.53;4.63;;;;;;;;;;5059238;28;20185;-70
2021/06/02 00:58:41;;;;;;;5.43;4.38;;;;;;;;;;5064475;28;20607;-70
2021/06/02 01:01:07;;;;;;;5.47;4.63;;;;;;;;;;5058411;28;21225;-70
2021/06/02 01:03:34;;;;;;;7.32;4.60;;;;;;;;;;5066176;28;20193;-70
2021/06/02 01:06:00;;;;;;;7.10;4.78;;;;;;;;;;5057674;28;20310;-70
2021/06/02 01:08:26;;;;;;;7.03;4.55;;;;;;;;;;5061425;28;20248;-70
2021/06/02 01:10:52;;;;;;;6.03;4.20;;;;;;;;;;5057179;28;20644;-70
2021/06/02 01:13:20;;;;;;;5.20;4.70;;;;;;;;;;5068576;28;20223;-70
2021/06/02 01:15:47;;;;;;;7.85;5.50;;;;;;;;;;5065747;28;20212;-70
2021/06/02 01:18:12;;;;;;;5.63;4.88;;;;;;;;;;5064758;28;20180;-71
2021/06/02 01:20:38;;;;;;;8.57;5.25;;;;;;;;;;5065525;28;20180;-71
2021/06/02 01:23:04;;;;;;;8.35;5.63;;;;;;;;;;5052347;28;20287;-70
2021/06/02 01:25:29;;;;;;;8.27;5.65;;;;;;;;;;5067856;28;20287;-71
2021/06/02 01:27:55;;;;;;;12.23;6.07;;;;;;;;;;5063604;28;20177;-69
2021/06/02 01:30:22;;;;;;;8.15;5.32;;;;;;;;;;5057656;28;20186;-69
2021/06/02 01:32:56;;;;;;;8.90;5.57;;;;;;;;;;5064270;28;20674;-69
2021/06/02 01:35:24;;;;;;;7.05;5.13;;;;;;;;;;5057354;28;20181;-69
2021/06/02 01:37:49;;;;;;;7.68;6.57;;;;;;;;;;5065245;28;20216;-70
2021/06/02 01:40:24;;;;;;;8.95;5.53;;;;;;;;;;5068190;28;20300;-70
2021/06/02 01:43:01;;;;;;;7.22;6.50;;;;;;;;;;5062993;28;20499;-70
2021/06/02 01:45:35;;;;;;;6.80;6.10;;;;;;;;;;5062628;28;20236;-70
2021/06/02 01:48:03;;;;;;;9.68;7.05;;;;;;;;;;5058912;28;20610;-70
2021/06/02 01:50:40;;;;;;;7.93;6.93;;;;;;;;;;5056013;28;20178;-70
2021/06/02 01:53:30;;;;;;;7.78;6.53;;;;;;;;;;5063513;28;20197;-70
2021/06/02 01:55:55;;;;;;;8.65;6.78;;;;;;;;;;5063920;28;20180;-70
2021/06/02 01:58:39;;;;;;;10.25;7.25;;;;;;;;;;5062413;28;20594;-69
2021/06/02 02:01:13;;;;;;;7.80;6.65;;;;;;;;;;5059238;28;20425;-70
2021/06/02 02:03:56;;;;;;;8.32;6.78;;;;;;;;;;5064356;28;20239;-69
2021/06/02 02:06:35;;;;;;;11.90;8.02;;;;;;;;;;5065404;28;20634;-70
2021/06/02 02:09:03;;;;;;;9.07;7.68;;;;;;;;;;5061825;28;20169;-70
2021/06/02 02:11:30;;;;;;;10.55;7.40;;;;;;;;;;5058651;28;20177;-70
2021/06/02 02:13:56;;;;;;;10.32;7.90;;;;;;;;;;5064355;28;20689;-70
2021/06/02 02:16:36;;;;;;;8.97;7.73;;;;;;;;;;5064307;28;20188;-70
2021/06/02 02:19:20;;;;;;;10.18;8.70;;;;;;;;;;5064375;28;20180;-70
2021/06/02 02:22:07;;;;;;;10.93;7.90;;;;;;;;;;5063926;28;20214;-70
2021/06/02 02:24:54;;;;;;;10.45;7.82;;;;;;;;;;5065006;28;20205;-70
2021/06/02 02:27:28;;;;;;;11.05;8.02;;;;;;;;;;5060580;28;20261;-70
2021/06/02 02:29:57;;;;;;;11.18;7.60;;;;;;;;;;5061871;28;20311;-70
2021/06/02 02:32:32;;;;;;;10.52;8.20;;;;;;;;;;5064974;28;20603;-70
2021/06/02 02:35:20;;;;;;;11.02;9.57;;;;;;;;;;5064389;28;20246;-70
2021/06/02 02:37:54;;;;;;;12.53;8.93;;;;;;;;;;5064684;28;20214;-70
2021/06/02 02:40:27;;;;;;;12.38;9.13;;;;;;;;;;5061825;28;20275;-70
2021/06/02 02:43:00;;;;;;;15.18;9.40;;;;;;;;;;5050212;28;20198;-71
2021/06/02 02:45:36;;;;;;;12.52;9.30;;;;;;;;;;5063077;28;20646;-71
2021/06/02 02:48:15;;;;;;;13.18;8.55;;;;;;;;;;5066996;28;20271;-71
2021/06/02 02:51:01;;;;;;;12.82;8.82;;;;;;;;;;5061855;28;20181;-70
2021/06/02 02:53:44;;;;;;;14.57;8.80;;;;;;;;;;5060169;28;20196;-70
2021/06/02 02:56:14;;;;;;;15.10;9.98;;;;;;;;;;5064310;28;20268;-70
2021/06/02 02:58:42;;;;;;;12.15;9.13;;;;;;;;;;5061053;28;20640;-71
2021/06/02 03:01:12;;;;;;;14.35;9.38;;;;;;;;;;5062179;28;20189;-71
2021/06/02 03:03:47;;;;;;;11.27;9.35;;;;;;;;;;5063533;28;20201;-71
2021/06/02 03:06:33;;;;;;;12.90;8.40;;;;;;;;;;5062655;28;20176;-71
2021/06/02 03:09:00;;;;;;;12.93;10.02;;;;;;;;;;5060380;28;20834;-71
2021/06/02 03:11:31;;;;;;;13.88;10.05;;;;;;;;;;5059762;28;20268;-71
2021/06/02 03:13:59;;;;;;;17.15;11.05;;;;;;;;;;5056882;28;20193;-71
2021/06/02 03:16:30;;;;;;;12.73;9.80;;;;;;;;;;5066014;28;20719;-71
2021/06/02 03:19:04;;;;;;;12.48;9.60;;;;;;;;;;5058904;28;20197;-71
2021/06/02 03:21:44;;;;;;;12.32;9.85;;;;;;;;;;5071618;28;20169;-71
2021/06/02 03:24:22;;;;;;;11.05;9.30;;;;;;;;;;5064716;28;20204;-71
2021/06/02 03:26:53;;;;;;;12.35;10.40;;;;;;;;;;5067959;28;20177;-73
2021/06/02 03:29:32;;;;;;;39.03;12.45;;;;;;;;;;5069102;28;20211;-71
2021/06/02 03:31:58;;;;;;;11.75;9.13;;;;;;;;;;5065560;28;20176;-71
2021/06/02 03:34:29;;;;;;;11.73;9.65;;;;;;;;;;5065548;28;20662;-70
2021/06/02 03:37:00;;;;;;;13.40;9.07;;;;;;;;;;5067326;28;20440;-70
2021/06/02 03:39:43;;;;;;;13.25;9.27;;;;;;;;;;5070598;28;20741;-70
2021/06/02 03:42:09;;;;;;;10.00;8.65;;;;;;;;;;5064292;28;20226;-70
2021/06/02 03:44:56;;;;;;;10.77;9.20;;;;;;;;;;5068769;28;20236;-70
2021/06/02 03:47:36;;;;;;;11.63;9.80;;;;;;;;;;5065223;28;20224;-70
2021/06/02 03:50:34;;;;;;;14.52;9.57;;;;;;;;;;5067059;28;20169;-70
2021/06/02 03:53:03;;;;;;;11.10;9.25;;;;;;;;;;5057640;28;20575;-70
2021/06/02 03:55:32;;;;;;;11.50;8.93;;;;;;;;;;5064200;28;20183;-70
2021/06/02 03:58:06;;;;;;;11.30;9.85;;;;;;;;;;5064383;28;20169;-70
2021/06/02 04:00:35;;;;;;;12.68;9.48;;;;;;;;;;5065222;28;20193;-70
2021/06/02 04:03:00;;;;;;;13.05;9.35;;;;;;;;;;5064631;28;20197;-70
2021/06/02 04:05:46;;;;;;;14.93;10.07;;;;;;;;;;5066359;28;20201;-70
2021/06/02 04:08:14;;;;;;;11.63;9.90;;;;;;;;;;5067006;28;20430;-70
2021/06/02 04:10:44;;;;;;;11.48;9.38;;;;;;;;;;5062869;28;20308;-70
2021/06/02 04:13:22;;;;;;;14.65;10.40;;;;;;;;;;5068497;28;20196;-70
2021/06/02 04:15:47;;;;;;;12.20;9.32;;;;;;;;;;5063757;28;20650;-70
2021/06/02 04:18:14;;;;;;;12.00;9.52;;;;;;;;;;5062915;28;20205;-70
2021/06/02 04:20:42;;;;;;;12.35;9.73;;;;;;;;;;5062733;28;20196;-69
2021/06/02 04:23:08;;;;;;;11.98;9.52;;;;;;;;;;5058133;28;20196;-70
2021/06/02 04:25:33;;;;;;;11.05;8.93;;;;;;;;;;5064631;28;20717;-70
2021/06/02 04:27:59;;;;;;;12.80;9.48;;;;;;;;;;5064120;28;20181;-70
2021/06/02 04:30:25;;;;;;;13.43;9.73;;;;;;;;;;5062982;28;20265;-70
2021/06/02 04:32:55;;;;;;;12.82;9.88;;;;;;;;;;5065506;28;20200;-70
2021/06/02 04:35:21;;;;;;;13.25;10.23;;;;;;;;;;5068718;28;20700;-70
2021/06/02 04:37:46;;;;;;;11.87;9.57;;;;;;;;;;5065591;28;20224;-70
2021/06/02 04:40:12;;;;;;;13.38;9.48;;;;;;;;;;5062203;28;20445;-69
2021/06/02 04:42:37;;;;;;;17.10;10.18;;;;;;;;;;5063583;28;20213;-70
2021/06/02 04:45:07;;;;;;;11.85;9.73;;;;;;;;;;5061702;28;20204;-71
2021/06/02 04:47:33;;;;;;;13.80;10.05;;;;;;;;;;5066484;28;20170;-70
2021/06/02 04:50:01;;;;;;;13.23;9.50;;;;;;;;;;5070387;28;20177;-70
2021/06/02 04:52:29;;;;;;;13.95;11.35;;;;;;;;;;5058664;28;20669;-70
2021/06/02 04:55:25;;;;;;;13.50;9.77;;;;;;;;;;5053746;28;20186;-70
2021/06/02 04:58:10;;;;;;;15.70;10.20;;;;;;;;;;5064581;28;20200;-70
2021/06/02 05:00:36;;;;;;;14.23;9.98;;;;;;;;;;5058914;28;20191;-70
2021/06/02 05:03:19;;;;;;;13.77;9.70;;;;;;;;;;5056861;28;20201;-70
2021/06/02 05:06:14;;;;;;;14.38;10.35;;;;;;;;;;5058064;28;20200;-70
2021/06/02 05:09:01;;;;;;;11.60;10.02;;;;;;;;;;5065350;28;20215;-70
2021/06/02 05:11:26;;;;;;;15.82;10.60;;;;;;;;;;5060773;28;20666;-70
2021/06/02 05:13:54;;;;;;;13.25;9.93;;;;;;;;;;5063268;28;20198;-70
2021/06/02 05:16:36;;;;;;;13.82;10.85;;;;;;;;;;5062311;28;20415;-70
2021/06/02 05:19:14;;;;;;;11.80;9.85;;;;;;;;;;5069266;28;20590;-70
2021/06/02 05:22:05;;;;;;;13.73;9.93;;;;;;;;;;5061556;28;20184;-70
2021/06/02 05:24:36;;;;;;;11.82;10.50;;;;;;;;;;5066116;28;20618;-71
2021/06/02 05:27:20;;;;;;;13.13;9.77;;;;;;;;;;5056584;28;20209;-70
2021/06/02 05:30:04;;;;;;;11.10;9.95;;;;;;;;;;5058390;28;20185;-70
2021/06/02 05:32:32;;;;;;;12.15;9.85;;;;;;;;;;5059468;28;20239;-70
2021/06/02 05:35:16;;;;;;;13.02;10.52;;;;;;;;;;5064716;28;20216;-70
2021/06/02 05:37:51;;;;;;;13.90;10.02;;;;;;;;;;5058244;28;20554;-69
2021/06/02 05:40:16;;;;;;;12.15;10.15;;;;;;;;;;5065386;28;20183;-69
2021/06/02 05:43:06;;;;;;;11.25;10.15;;;;;;;;;;5062035;28;20189;-69
2021/06/02 05:45:50;;;;;;;11.38;9.93;;;;;;;;;;5056552;28;20456;-69
2021/06/02 05:48:34;;;;;;;12.07;10.68;;;;;;;;;;5066011;28;20189;-69
2021/06/02 05:51:17;;;;;;;11.98;10.20;;;;;;;;;;5063528;28;20168;-69
2021/06/02 05:53:48;;;;;;;12.48;10.10;;;;;;;;;;5059298;28;20200;-69
2021/06/02 05:56:32;;;;;;;13.00;10.02;;;;;;;;;;5058312;28;20715;-69
2021/06/02 05:59:16;;;;;;;12.50;10.63;;;;;;;;;;5059389;28;20180;-69
2021/06/02 06:01:50;;;;;;;16.02;10.25;;;;;;;;;;5060784;28;20175;-69
2021/06/02 06:04:47;;;;;;;11.30;9.70;;;;;;;;;;5062875;28;20223;-69
2021/06/02 06:07:37;;;;;;;15.23;10.65;;;;;;;;;;5058144;28;20312;-69
2021/06/02 06:10:09;;;;;;;12.30;9.90;;;;;;;;;;5056761;28;20177;-71
2021/06/02 06:12:34;;;;;;;11.98;9.98;;;;;;;;;;5053339;28;20201;-70
2021/06/02 06:15:02;;;;;;;12.82;9.32;;;;;;;;;;5056505;28;20181;-68
2021/06/02 06:17:46;;;;;;;12.27;10.35;;;;;;;;;;5064525;28;20438;-69
2021/06/02 06:20:30;;;;;;;12.73;9.70;;;;;;;;;;5057962;28;20185;-68
2021/06/02 06:22:55;;;;;;;12.18;10.75;;;;;;;;;;5054949;28;20196;-69
2021/06/02 06:25:31;;;;;;;20.70;10.55;;;;;;;;;;5058223;28;20260;-69
2021/06/02 06:28:01;;;;;;;14.07;10.30;;;;;;;;;;5056876;28;20185;-70
2021/06/02 06:30:31;;;;;;;11.98;9.77;;;;;;;;;;5057947;28;20200;-69
2021/06/02 06:32:57;;;;;;;10.40;9.18;;;;;;;;;;5055690;28;20221;-69
2021/06/02 06:35:24;;;;;;;10.10;9.02;;;;;;;;;;5065732;28;20204;-70
2021/06/02 06:37:52;;;;;;;12.88;10.18;;;;;;;;;;5061478;28;20178;-69
2021/06/02 06:40:28;;;;;;;11.75;10.13;;;;;;;;;;5063297;28;20271;-70
2021/06/02 06:42:57;;;;;;;11.98;9.32;;;;;;;;;;5054637;28;20199;-69
2021/06/02 06:45:30;;;;;;;12.00;10.32;;;;;;;;;;5060503;28;20296;-70
2021/06/02 06:47:55;;;;;;;13.13;8.80;;;;;;;;;;5052149;28;20193;-70
2021/06/02 06:50:21;;;;;;;12.10;9.55;;;;;;;;;;5049721;28;20173;-70
2021/06/02 06:52:47;;;;;;;10.68;9.00;;;;;;;;;;5057175;28;20199;-70
2021/06/02 06:55:13;;;;;;;12.30;8.93;;;;;;;;;;5058220;28;20208;-70
2021/06/02 06:57:39;;;;;;;13.13;9.80;;;;;;;;;;5059367;28;20654;-69
2021/06/02 07:00:05;;;;;;;12.20;9.30;;;;;;;;;;5060039;28;22467;-69
2021/06/02 07:02:30;;;;;;;10.98;9.88;;;;;;;;;;5065113;28;20553;-70
2021/06/02 07:04:59;;;;;;;11.63;9.60;;;;;;;;;;5060897;28;20230;-69
2021/06/02 07:07:25;;;;;;;11.18;9.40;;;;;;;;;;5065693;28;20226;-69
2021/06/02 07:09:50;;;;;;;16.13;9.45;;;;;;;;;;5063142;28;20173;-69
2021/06/02 07:12:16;;;;;;;10.20;8.23;;;;;;;;;;5061429;28;20180;-70
2021/06/02 07:14:42;;;;;;;12.60;9.50;;;;;;;;;;5067361;28;20185;-69
2021/06/02 07:17:07;;;;;;;11.63;8.70;;;;;;;;;;5056123;28;20170;-69
2021/06/02 07:19:34;;;;;;;11.70;9.30;;;;;;;;;;5059770;28;20563;-69
2021/06/02 07:22:00;;;;;;;10.80;9.13;;;;;;;;;;5051697;28;20184;-69
2021/06/02 07:24:25;;;;;;;10.23;9.02;;;;;;;;;;5055264;28;20283;-69
2021/06/02 07:26:51;;;;;;;10.30;9.15;;;;;;;;;;5058334;28;20203;-70
2021/06/02 07:29:16;;;;;;;9.40;8.50;;;;;;;;;;5059627;28;20188;-69
2021/06/02 07:31:42;;;;;;;9.90;8.93;;;;;;;;;;5058532;28;20174;-69
2021/06/02 07:34:07;;;;;;;10.38;8.68;;;;;;;;;;5059206;28;20222;-70
2021/06/02 07:36:32;;;;;;;10.57;9.48;;;;;;;;;;5049926;28;20238;-69
2021/06/02 07:38:58;;;;;;;11.20;9.45;;;;;;;;;;5054562;28;20821;-69
2021/06/02 07:41:23;;;;;;;11.02;9.35;;;;;;;;;;5063156;28;20689;-69
2021/06/02 07:43:48;;;;;;;13.17;9.43;;;;;;;;;;5066062;28;20235;-69
2021/06/02 07:46:14;;;;;;;11.38;8.93;;;;;;;;;;5045617;28;21027;-69
2021/06/02 07:48:39;;;;;;;11.73;8.27;;;;;;;;;;5056960;28;20272;-69
2021/06/02 07:51:04;;;;;;;11.13;8.83;;;;;;;;;;5057451;28;20426;-69
2021/06/02 07:53:29;;;;;;;12.52;8.55;;;;;;;;;;5054861;28;21066;-69
2021/06/02 07:55:54;;;;;;;10.47;8.67;;;;;;;;;;5059225;28;20247;-69
2021/06/02 07:58:20;;;;;;;10.70;7.97;;;;;;;;;;5042165;28;20430;-70
2021/06/02 08:00:45;;;;;;;9.87;8.93;;;;;;;;;;5039496;28;20641;-70
2021/06/02 08:03:10;;;;;;;12.43;9.00;;;;;;;;;;5056086;28;20453;-69
2021/06/02 08:05:35;;;;;;;10.60;8.97;;;;;;;;;;5062721;28;20200;-70
2021/06/02 08:08:01;;;;;;;9.45;8.52;;;;;;;;;;5058306;28;20834;-70
2021/06/02 08:10:26;;;;;;;14.17;8.90;;;;;;;;;;5059869;28;20192;-71
2021/06/02 08:12:51;;;;;;;10.25;7.88;;;;;;;;;;5056554;28;20536;-70
2021/06/02 08:15:17;;;;;;;9.30;7.75;;;;;;;;;;5052517;28;20910;-70
2021/06/02 08:17:43;;;;;;;10.55;8.52;;;;;;;;;;5054613;28;21399;-70
2021/06/02 08:20:09;;;;;;;9.15;8.15;;;;;;;;;;5052010;28;20182;-70
2021/06/02 08:22:34;;;;;;;9.52;7.88;;;;;;;;;;5053970;28;20197;-70
2021/06/02 08:25:00;;;;;;;8.43;7.60;;;;;;;;;;5054690;28;20239;-70
2021/06/02 08:27:26;;;;;;;9.63;8.10;;;;;;;;;;5056026;28;20188;-70
2021/06/02 08:29:53;;;;;;;9.10;7.87;;;;;;;;;;5057163;28;20173;-70
2021/06/02 08:32:19;;;;;;;8.50;6.45;;;;;;;;;;5062621;28;20205;-69
2021/06/02 08:34:44;;;;;;;7.60;6.80;;;;;;;;;;5054358;28;20265;-70
2021/06/02 08:37:10;;;;;;;10.50;7.10;;;;;;;;;;5056559;28;20667;-70
2021/06/02 08:39:35;;;;;;;10.25;7.30;;;;;;;;;;5054390;28;20200;-70
2021/06/02 08:42:00;;;;;;;9.00;6.25;;;;;;;;;;5062081;28;20181;-70
2021/06/02 08:44:25;;;;;;;7.87;6.03;;;;;;;;;;5052864;28;20204;-69
2021/06/02 08:46:52;;;;;;;12.40;6.90;;;;;;;;;;5057198;28;20504;-70
2021/06/02 08:49:18;;;;;;;6.30;5.40;;;;;;;;;;5055878;28;20607;-70
2021/06/02 08:51:43;;;;;;;6.30;5.70;;;;;;;;;;5063611;28;20181;-70
2021/06/02 08:54:09;;;;;;;7.18;6.18;;;;;;;;;;5055096;28;20196;-70
2021/06/02 08:56:39;;;;;;;10.43;5.93;;;;;;;;;;5058403;28;20173;-69
2021/06/02 08:59:04;;;;;;;8.82;6.10;;;;;;;;;;5056651;28;20615;-69
2021/06/02 09:01:29;;;;;;;9.23;5.37;;;;;;;;;;5064111;28;20208;-70
2021/06/02 09:03:54;;;;;;;8.10;6.38;;;;;;;;;;5057063;28;20424;-70
2021/06/02 09:06:20;;;;;;;8.20;5.50;;;;;;;;;;5061752;28;20650;-70
2021/06/02 09:08:46;;;;;;;8.45;5.97;;;;;;;;;;5055285;28;20177;-70
2021/06/02 09:11:19;;;;;;;6.53;5.40;;;;;;;;;;5054024;28;20543;-70
2021/06/02 09:13:45;;;;;;;7.38;4.82;;;;;;;;;;5052638;28;20565;-71
2021/06/02 09:16:22;;;;;;;7.45;6.72;;;;;;;;;;5058181;28;20173;-70
2021/06/02 09:18:48;;;;;;;6.53;4.97;;;;;;;;;;5061879;28;20168;-71
2021/06/02 09:21:13;;;;;;;5.78;5.18;;;;;;;;;;5058374;28;20203;-70
2021/06/02 09:23:43;;;;;;;5.50;4.45;;;;;;;;;;5053739;28;20200;-68
2021/06/02 09:26:12;;;;;;;6.18;5.05;;;;;;;;;;5057320;28;21268;-70
2021/06/02 09:28:54;;;;;;;5.30;4.57;;;;;;;;;;5052567;28;20314;-69
2021/06/02 09:31:19;;;;;;;6.25;4.47;;;;;;;;;;5051687;28;20178;-70
2021/06/02 09:33:45;;;;;;;6.67;4.40;;;;;;;;;;5061257;28;20201;-70
2021/06/02 09:36:10;;;;;;;4.03;3.63;;;;;;;;;;5066868;28;20529;-70
2021/06/02 09:38:36;;;;;;;4.88;4.45;;;;;;;;;;5062667;28;20193;-69
2021/06/02 09:41:01;;;;;;;4.27;3.60;;;;;;;;;;5057686;28;20621;-70
2021/06/02 09:43:33;;;;;;;6.82;3.28;;;;;;;;;;5052271;28;20981;-69
2021/06/02 09:46:06;;;;;;;4.20;3.22;;;;;;;;;;5052468;28;20295;-73
2021/06/02 09:48:51;;;;;;;4.20;3.33;;;;;;;;;;5053059;28;20450;-70
2021/06/02 09:51:33;;;;;;;7.88;3.72;;;;;;;;;;5055089;28;20176;-70
2021/06/02 09:53:59;;;;;;;4.10;3.42;;;;;;;;;;5055969;28;20576;-70
2021/06/02 09:56:31;;;;;;;4.35;3.33;;;;;;;;;;5062763;28;20812;-70
2021/06/02 09:58:56;;;;;;;5.20;3.03;;;;;;;;;;5056050;28;20666;-70
2021/06/02 10:01:21;;;;;;;4.50;3.13;;;;;;;;;;5053030;28;20315;-71
2021/06/02 10:03:46;;;;;;;4.33;2.40;;;;;;;;;;5055359;28;20231;-70
2021/06/02 10:06:15;;;;;;;6.40;3.03;;;;;;;;;;5053267;28;20457;-70
2021/06/02 10:08:41;;;;;;;6.88;3.20;;;;;;;;;;5060240;28;20627;-72
2021/06/02 10:11:10;;;;;;;6.03;2.83;;;;;;;;;;5052831;28;20204;-70
2021/06/02 10:13:37;;;;;;;3.35;2.78;;;;;;;;;;5051658;28;20215;-71
2021/06/02 10:16:02;;;;;;;3.15;2.95;;;;;;;;;;5056667;28;20188;-69
2021/06/02 10:18:32;;;;;;;4.22;3.53;;;;;;;;;;5051720;28;20191;-70
2021/06/02 10:21:08;;;;;;;4.00;2.95;;;;;;;;;;5051404;28;20661;-70
2021/06/02 10:23:59;;;;;;;4.20;3.55;;;;;;;;;;5064341;28;20279;-69
2021/06/02 10:26:25;;;;;;;8.52;4.28;;;;;;;;;;5050663;28;20753;-70
2021/06/02 10:28:51;;;;;;;4.15;3.67;;;;;;;;;;5054888;28;20689;-70
2021/06/02 10:31:18;;;;;;;3.85;3.45;;;;;;;;;;5058904;28;20268;-70
2021/06/02 10:33:43;;;;;;;4.80;4.00;;;;;;;;;;5049753;28;20695;-70
2021/06/02 10:36:09;;;;;;;4.15;3.67;;;;;;;;;;5049403;28;20180;-70
2021/06/02 10:39:03;;;;;;;3.50;3.20;;;;;;;;;;5049801;28;20187;-70
2021/06/02 10:41:30;;;;;;;4.38;3.22;;;;;;;;;;5049909;28;20242;-69
2021/06/02 10:44:06;;;;;;;6.57;3.47;;;;;;;;;;5050342;28;20619;-70
2021/06/02 10:46:32;;;;;;;6.07;3.72;;;;;;;;;;5053296;28;22648;-70
2021/06/02 10:49:00;;;;;;;5.72;3.53;;;;;;;;;;5055286;28;20176;-71
2021/06/02 10:51:28;;;;;;;3.92;3.20;;;;;;;;;;5060023;28;20173;-70
2021/06/02 10:54:05;;;;;;;4.72;4.07;;;;;;;;;;5051045;28;20279;-70
2021/06/02 10:56:31;;;;;;;3.83;3.40;;;;;;;;;;5061119;28;20237;-69
2021/06/02 10:58:56;;;;;;;4.72;3.70;;;;;;;;;;5055631;28;20173;-69
2021/06/02 11:01:22;;;;;;;6.05;4.63;;;;;;;;;;5055514;28;20470;-69
2021/06/02 11:04:10;;;;;;;5.18;3.70;;;;;;;;;;5054062;28;20185;-70
2021/06/02 11:06:37;;;;;;;4.25;3.00;;;;;;;;;;5056080;28;20271;-70
2021/06/02 11:09:02;;;;;;;3.53;2.47;;;;;;;;;;5067074;28;20156;-68
2021/06/02 11:11:30;;;;;;;3.37;3.00;;;;;;;;;;5082305;28;20218;-69
2021/06/02 11:14:14;;;;;;;3.10;2.55;;;;;;;;;;5079328;28;20218;-69
2021/06/02 11:16:39;;;;;;;4.03;3.70;;;;;;;;;;5073900;28;20196;-68
2021/06/02 11:19:16;;;;;;;5.57;3.22;;;;;;;;;;5056200;28;20240;-70
2021/06/02 11:21:54;;;;;;;7.68;3.38;;;;;;;;;;5060683;28;20187;-70
2021/06/02 11:24:31;;;;;;;5.68;3.72;;;;;;;;;;5050822;28;20212;-70
2021/06/02 11:27:02;;;;;;;4.05;2.50;;;;;;;;;;5053414;28;20172;-70
2021/06/02 11:29:28;;;;;;;3.53;2.35;;;;;;;;;;5052456;28;20828;-70
2021/06/02 11:31:56;;;;;;;3.23;2.93;;;;;;;;;;5052487;28;20271;-70
2021/06/02 11:34:28;;;;;;;4.53;2.55;;;;;;;;;;5052637;28;20666;-71
2021/06/02 11:37:02;;;;;;;4.05;2.78;;;;;;;;;;5054263;28;20230;-70
2021/06/02 11:39:28;;;;;;;3.25;2.38;;;;;;;;;;5053841;28;20203;-70
2021/06/02 11:41:58;;;;;;;2.97;2.50;;;;;;;;;;5062586;28;20550;-70
2021/06/02 11:44:27;;;;;;;3.15;2.85;;;;;;;;;;5060099;28;20258;-70
2021/06/02 11:46:52;;;;;;;4.95;3.00;;;;;;;;;;5055512;28;20188;-70
2021/06/02 11:49:23;;;;;;;3.90;2.90;;;;;;;;;;5055564;28;20208;-70
2021/06/02 11:51:48;;;;;;;6.28;2.60;;;;;;;;;;5056533;28;20540;-71
2021/06/02 11:54:13;;;;;;;5.40;2.80;;;;;;;;;;5055656;28;20211;-70
2021/06/02 11:56:39;;;;;;;4.43;3.00;;;;;;;;;;5050554;28;20593;-70
2021/06/02 11:59:04;;;;;;;5.40;3.43;;;;;;;;;;5056074;28;20216;-70
2021/06/02 12:01:30;;;;;;;6.25;2.92;;;;;;;;;;5058063;28;20182;-70
2021/06/02 12:03:55;;;;;;;4.10;2.93;;;;;;;;;;5054796;28;20204;-70
2021/06/02 12:06:27;;;;;;;3.33;3.00;;;;;;;;;;5055750;28;20699;-70
2021/06/02 12:08:54;;;;;;;3.75;2.50;;;;;;;;;;5059350;28;20204;-71
2021/06/02 12:11:19;;;;;;;2.70;2.25;;;;;;;;;;5052521;28;20314;-71
2021/06/02 12:13:45;;;;;;;4.77;2.80;;;;;;;;;;5058763;28;20342;-70
2021/06/02 12:16:14;;;;;;;5.18;2.97;;;;;;;;;;5054773;28;20176;-71
2021/06/02 12:18:40;;;;;;;4.40;2.72;;;;;;;;;;5053981;28;20195;-70
2021/06/02 12:21:10;;;;;;;3.53;2.20;;;;;;;;;;5061403;28;20202;-70
2021/06/02 12:23:45;;;;;;;5.43;2.60;;;;;;;;;;5054774;28;20242;-70
2021/06/02 12:26:33;;;;;;;3.72;2.10;;;;;;;;;;5056231;28;20202;-70
2021/06/02 12:28:59;;;;;;;4.10;2.47;;;;;;;;;;5053628;28;20214;-70
2021/06/02 12:31:31;;;;;;;2.53;2.15;;;;;;;;;;5053556;28;20182;-70
2021/06/02 12:34:01;;;;;;;4.07;2.55;;;;;;;;;;5056339;28;20236;-70
2021/06/02 12:36:26;;;;;;;3.45;2.63;;;;;;;;;;5058647;28;20208;-71
2021/06/02 12:38:52;;;;;;;3.40;2.80;;;;;;;;;;5053635;28;20662;-70
2021/06/02 12:41:23;;;;;;;4.07;2.20;;;;;;;;;;5061260;28;20192;-71
2021/06/02 12:43:49;;;;;;;4.07;2.45;;;;;;;;;;5053194;28;20677;-72
2021/06/02 12:46:15;;;;;;;4.70;2.40;;;;;;;;;;5060780;28;20204;-70
2021/06/02 12:48:40;;;;;;;3.33;2.15;;;;;;;;;;5056027;28;20181;-71
2021/06/02 12:51:07;;;;;;;3.50;2.00;;;;;;;;;;5054286;28;20226;-71
2021/06/02 12:53:39;;;;;;;5.65;2.47;;;;;;;;;;5066868;28;20196;-71
2021/06/02 12:56:05;;;;;;;5.15;2.17;;;;;;;;;;5052476;28;20184;-71
2021/06/02 12:58:33;;;;;;;4.10;2.30;;;;;;;;;;5051714;28;20204;-71
2021/06/02 13:01:04;;;;;;;2.15;1.95;;;;;;;;;;5054756;28;20180;-71
2021/06/02 13:03:29;;;;;;;2.65;2.08;;;;;;;;;;5051852;28;20580;-70
2021/06/02 13:05:55;;;;;;;2.83;2.50;;;;;;;;;;5054977;28;20185;-70
2021/06/02 13:08:23;;;;;;;3.15;2.35;;;;;;;;;;5053119;28;20872;-70
2021/06/02 13:10:48;;;;;;;5.18;2.50;;;;;;;;;;5054101;28;20584;-70
2021/06/02 13:13:14;;;;;;;3.43;2.20;;;;;;;;;;5054984;28;20210;-70
2021/06/02 13:15:59;;;;;;;2.72;2.30;;;;;;;;;;5059244;28;21051;-70
2021/06/02 13:18:28;;;;;;;2.63;2.40;;;;;;;;;;5051365;28;20191;-70
2021/06/02 13:20:54;;;;;;;4.07;2.33;;;;;;;;;;5056093;28;20185;-70
2021/06/02 13:23:21;;;;;;;4.30;2.60;;;;;;;;;;5051834;28;20208;-71
2021/06/02 13:26:03;;;;;;;2.47;2.20;;;;;;;;;;5054329;28;20180;-70
2021/06/02 13:28:29;;;;;;;3.03;2.08;;;;;;;;;;5053071;28;20733;-71
2021/06/02 13:30:56;;;;;;;4.88;2.60;;;;;;;;;;5066200;28;20183;-70
2021/06/02 13:33:21;;;;;;;4.38;2.30;;;;;;;;;;5052315;28;20312;-71
2021/06/02 13:35:59;;;;;;;4.27;2.50;;;;;;;;;;5059238;28;20212;-70
2021/06/02 13:38:25;;;;;;;4.93;2.58;;;;;;;;;;5060914;28;20187;-69
2021/06/02 13:40:50;;;;;;;3.67;3.00;;;;;;;;;;5058496;28;20184;-71
2021/06/02 13:43:16;;;;;;;3.40;3.07;;;;;;;;;;5050656;28;20223;-70
2021/06/02 13:45:47;;;;;;;3.47;3.17;;;;;;;;;;5048919;28;20531;-70
2021/06/02 13:48:32;;;;;;;5.65;3.13;;;;;;;;;;5060800;28;20211;-70
2021/06/02 13:51:09;;;;;;;3.58;3.10;;;;;;;;;;5058266;28;20192;-70
2021/06/02 13:53:35;;;;;;;3.80;2.95;;;;;;;;;;5056032;28;20262;-71
2021/06/02 13:56:00;;;;;;;4.27;2.93;;;;;;;;;;5052642;28;20196;-71
2021/06/02 13:58:25;;;;;;;4.70;2.83;;;;;;;;;;5052607;28;20534;-71
2021/06/02 14:00:51;;;;;;;4.57;2.70;;;;;;;;;;5056924;28;20175;-70
2021/06/02 14:03:16;;;;;;;5.13;3.83;;;;;;;;;;5051800;28;20241;-69
2021/06/02 14:05:41;;;;;;;3.93;3.07;;;;;;;;;;5056041;28;20576;-70
2021/06/02 14:08:06;;;;;;;6.53;4.03;;;;;;;;;;5053601;28;20289;-70
2021/06/02 14:10:31;;;;;;;5.57;4.13;;;;;;;;;;5054588;28;21399;-70
2021/06/02 14:12:59;;;;;;;2.90;2.70;;;;;;;;;;5053643;28;20257;-70
2021/06/02 14:15:24;;;;;;;3.22;2.90;;;;;;;;;;5052393;28;20641;-70
2021/06/02 14:17:49;;;;;;;3.30;3.00;;;;;;;;;;5052044;28;20180;-70
2021/06/02 14:20:15;;;;;;;5.87;3.63;;;;;;;;;;5050159;28;20498;-71
2021/06/02 14:22:40;;;;;;;5.15;3.80;;;;;;;;;;5052915;28;20823;-70
2021/06/02 14:25:08;;;;;;;5.47;4.10;;;;;;;;;;5052477;28;20271;-70
2021/06/02 14:27:33;;;;;;;4.70;3.35;;;;;;;;;;5051539;28;20184;-70
2021/06/02 14:29:59;;;;;;;5.13;3.60;;;;;;;;;;5048462;28;20191;-70
2021/06/02 14:32:24;;;;;;;7.93;3.78;;;;;;;;;;5048421;28;20516;-69
2021/06/02 14:34:50;;;;;;;4.83;3.77;;;;;;;;;;5048731;28;20211;-70
2021/06/02 14:37:15;;;;;;;3.85;2.92;;;;;;;;;;5058825;28;20483;-70
2021/06/02 14:39:41;;;;;;;4.83;3.80;;;;;;;;;;5050374;28;20212;-70
2021/06/02 14:42:06;;;;;;;5.67;3.60;;;;;;;;;;5055422;28;20508;-70
2021/06/02 14:44:32;;;;;;;7.20;3.72;;;;;;;;;;5053019;28;20700;-71
2021/06/02 14:46:57;;;;;;;3.85;2.75;;;;;;;;;;5061920;28;20651;-70
2021/06/02 14:49:23;;;;;;;4.13;2.73;;;;;;;;;;5052021;28;20561;-70
2021/06/02 14:51:48;;;;;;;3.53;2.58;;;;;;;;;;5052380;28;20184;-71